sensor_id;sensor_type;location;lat;lon;timestamp;P1;durP1;ratioP1;P2;durP2;ratioP2
9739;SDS011;4909;42.680;26.324;2023-12-20T00:01:57;61.93;;;49.77;;
9739;SDS011;4909;42.680;26.324;2023-12-20T00:04:24;62.47;;;49.17;;
9739;SDS011;4909;42.680;26.324;2023-12-20T00:06:51;60.53;;;47.67;;
9739;SDS011;4909;42.680;26.324;2023-12-20T00:09:18;59.90;;;47.57;;
9739;SDS011;4909;42.680;26.324;2023-12-20T00:11:46;60.53;;;47.63;;
9739;SDS011;4909;42.680;26.324;2023-12-20T00:14:13;64.33;;;49.43;;
9739;SDS011;4909;42.680;26.324;2023-12-20T00:16:40;66.80;;;50.57;;
9739;SDS011;4909;42.680;26.324;2023-12-20T00:19:07;59.93;;;48.17;;
9739;SDS011;4909;42.680;26.324;2023-12-20T00:21:34;63.30;;;49.50;;
9739;SDS011;4909;42.680;26.324;2023-12-20T00:24:01;64.10;;;48.80;;
9739;SDS011;4909;42.680;26.324;2023-12-20T00:26:28;67.17;;;50.67;;
9739;SDS011;4909;42.680;26.324;2023-12-20T00:28:56;65.50;;;49.87;;
9739;SDS011;4909;42.680;26.324;2023-12-20T00:31:23;65.30;;;49.47;;
9739;SDS011;4909;42.680;26.324;2023-12-20T00:33:50;63.83;;;48.47;;
9739;SDS011;4909;42.680;26.324;2023-12-20T00:36:17;63.57;;;48.37;;
9739;SDS011;4909;42.680;26.324;2023-12-20T00:38:44;63.63;;;48.73;;
9739;SDS011;4909;42.680;26.324;2023-12-20T00:41:11;68.40;;;51.90;;
9739;SDS011;4909;42.680;26.324;2023-12-20T00:43:38;64.67;;;49.77;;
9739;SDS011;4909;42.680;26.324;2023-12-20T00:46:07;62.83;;;48.40;;
9739;SDS011;4909;42.680;26.324;2023-12-20T00:48:34;64.17;;;49.07;;
9739;SDS011;4909;42.680;26.324;2023-12-20T00:51:01;62.43;;;48.80;;
9739;SDS011;4909;42.680;26.324;2023-12-20T00:53:28;59.93;;;47.70;;
9739;SDS011;4909;42.680;26.324;2023-12-20T00:55:55;58.50;;;47.10;;
9739;SDS011;4909;42.680;26.324;2023-12-20T00:58:23;58.77;;;47.17;;
9739;SDS011;4909;42.680;26.324;2023-12-20T01:00:51;61.07;;;48.93;;
9739;SDS011;4909;42.680;26.324;2023-12-20T01:03:20;59.70;;;47.77;;
9739;SDS011;4909;42.680;26.324;2023-12-20T01:05:47;60.30;;;47.50;;
9739;SDS011;4909;42.680;26.324;2023-12-20T01:08:14;63.77;;;48.87;;
9739;SDS011;4909;42.680;26.324;2023-12-20T01:10:41;59.47;;;46.70;;
9739;SDS011;4909;42.680;26.324;2023-12-20T01:13:08;62.40;;;48.90;;
9739;SDS011;4909;42.680;26.324;2023-12-20T01:15:35;61.37;;;47.77;;
9739;SDS011;4909;42.680;26.324;2023-12-20T01:18:02;60.97;;;47.87;;
9739;SDS011;4909;42.680;26.324;2023-12-20T01:20:31;62.23;;;48.33;;
9739;SDS011;4909;42.680;26.324;2023-12-20T01:22:58;60.87;;;48.63;;
9739;SDS011;4909;42.680;26.324;2023-12-20T01:25:25;61.80;;;47.83;;
9739;SDS011;4909;42.680;26.324;2023-12-20T01:27:52;60.20;;;48.70;;
9739;SDS011;4909;42.680;26.324;2023-12-20T01:30:19;64.77;;;50.73;;
9739;SDS011;4909;42.680;26.324;2023-12-20T01:32:46;61.47;;;47.47;;
9739;SDS011;4909;42.680;26.324;2023-12-20T01:35:13;60.50;;;47.40;;
9739;SDS011;4909;42.680;26.324;2023-12-20T01:37:41;61.70;;;48.03;;
9739;SDS011;4909;42.680;26.324;2023-12-20T01:40:09;67.27;;;49.80;;
9739;SDS011;4909;42.680;26.324;2023-12-20T01:42:36;60.70;;;47.30;;
9739;SDS011;4909;42.680;26.324;2023-12-20T01:45:04;64.47;;;49.90;;
9739;SDS011;4909;42.680;26.324;2023-12-20T01:47:31;60.93;;;48.70;;
9739;SDS011;4909;42.680;26.324;2023-12-20T01:49:58;61.90;;;49.53;;
9739;SDS011;4909;42.680;26.324;2023-12-20T01:52:28;63.40;;;49.03;;
9739;SDS011;4909;42.680;26.324;2023-12-20T01:54:57;61.07;;;47.90;;
9739;SDS011;4909;42.680;26.324;2023-12-20T01:57:28;63.80;;;48.57;;
9739;SDS011;4909;42.680;26.324;2023-12-20T01:59:55;61.77;;;48.20;;
9739;SDS011;4909;42.680;26.324;2023-12-20T02:02:23;62.10;;;48.87;;
9739;SDS011;4909;42.680;26.324;2023-12-20T02:04:50;63.00;;;48.27;;
9739;SDS011;4909;42.680;26.324;2023-12-20T02:07:17;60.40;;;48.53;;
9739;SDS011;4909;42.680;26.324;2023-12-20T02:09:46;57.23;;;46.83;;
9739;SDS011;4909;42.680;26.324;2023-12-20T02:12:14;58.13;;;47.97;;
9739;SDS011;4909;42.680;26.324;2023-12-20T02:14:42;61.07;;;47.03;;
9739;SDS011;4909;42.680;26.324;2023-12-20T02:17:09;62.90;;;48.53;;
9739;SDS011;4909;42.680;26.324;2023-12-20T02:19:36;58.87;;;46.83;;
9739;SDS011;4909;42.680;26.324;2023-12-20T02:22:08;59.17;;;46.77;;
9739;SDS011;4909;42.680;26.324;2023-12-20T02:24:35;56.13;;;45.77;;
9739;SDS011;4909;42.680;26.324;2023-12-20T02:27:02;60.50;;;46.40;;
9739;SDS011;4909;42.680;26.324;2023-12-20T02:29:32;59.23;;;46.53;;
9739;SDS011;4909;42.680;26.324;2023-12-20T02:31:59;55.77;;;45.80;;
9739;SDS011;4909;42.680;26.324;2023-12-20T02:34:26;58.90;;;47.10;;
9739;SDS011;4909;42.680;26.324;2023-12-20T02:36:53;59.30;;;47.47;;
9739;SDS011;4909;42.680;26.324;2023-12-20T02:39:22;58.33;;;45.70;;
9739;SDS011;4909;42.680;26.324;2023-12-20T02:41:49;57.27;;;45.33;;
9739;SDS011;4909;42.680;26.324;2023-12-20T02:44:16;61.03;;;47.27;;
9739;SDS011;4909;42.680;26.324;2023-12-20T02:46:43;59.17;;;46.63;;
9739;SDS011;4909;42.680;26.324;2023-12-20T02:49:10;56.47;;;45.67;;
9739;SDS011;4909;42.680;26.324;2023-12-20T02:51:37;57.87;;;46.30;;
9739;SDS011;4909;42.680;26.324;2023-12-20T02:54:04;65.47;;;49.10;;
9739;SDS011;4909;42.680;26.324;2023-12-20T02:56:33;61.63;;;47.90;;
9739;SDS011;4909;42.680;26.324;2023-12-20T02:59:00;59.20;;;47.97;;
9739;SDS011;4909;42.680;26.324;2023-12-20T03:01:30;61.67;;;47.70;;
9739;SDS011;4909;42.680;26.324;2023-12-20T03:03:58;64.83;;;49.47;;
9739;SDS011;4909;42.680;26.324;2023-12-20T03:06:23;63.43;;;48.27;;
9739;SDS011;4909;42.680;26.324;2023-12-20T03:08:51;61.17;;;47.07;;
9739;SDS011;4909;42.680;26.324;2023-12-20T03:11:18;57.90;;;46.43;;
9739;SDS011;4909;42.680;26.324;2023-12-20T03:13:46;60.37;;;47.97;;
9739;SDS011;4909;42.680;26.324;2023-12-20T03:16:13;62.30;;;48.87;;
9739;SDS011;4909;42.680;26.324;2023-12-20T03:18:41;60.33;;;47.43;;
9739;SDS011;4909;42.680;26.324;2023-12-20T03:21:08;62.67;;;49.10;;
9739;SDS011;4909;42.680;26.324;2023-12-20T03:23:35;61.67;;;48.20;;
9739;SDS011;4909;42.680;26.324;2023-12-20T03:26:03;58.70;;;46.53;;
9739;SDS011;4909;42.680;26.324;2023-12-20T03:28:33;59.13;;;47.13;;
9739;SDS011;4909;42.680;26.324;2023-12-20T03:31:01;56.37;;;45.30;;
9739;SDS011;4909;42.680;26.324;2023-12-20T03:33:28;55.90;;;46.37;;
9739;SDS011;4909;42.680;26.324;2023-12-20T03:35:55;58.00;;;45.97;;
9739;SDS011;4909;42.680;26.324;2023-12-20T03:38:22;56.80;;;44.67;;
9739;SDS011;4909;42.680;26.324;2023-12-20T03:40:49;64.57;;;47.17;;
9739;SDS011;4909;42.680;26.324;2023-12-20T03:43:16;55.60;;;44.63;;
9739;SDS011;4909;42.680;26.324;2023-12-20T03:45:44;53.73;;;44.93;;
9739;SDS011;4909;42.680;26.324;2023-12-20T03:48:12;49.87;;;44.03;;
9739;SDS011;4909;42.680;26.324;2023-12-20T03:50:39;57.27;;;45.10;;
9739;SDS011;4909;42.680;26.324;2023-12-20T03:53:06;57.37;;;45.57;;
9739;SDS011;4909;42.680;26.324;2023-12-20T03:55:33;53.07;;;46.60;;
9739;SDS011;4909;42.680;26.324;2023-12-20T03:58:01;55.10;;;45.50;;
9739;SDS011;4909;42.680;26.324;2023-12-20T04:00:28;58.27;;;46.43;;
9739;SDS011;4909;42.680;26.324;2023-12-20T04:02:55;60.23;;;46.30;;
9739;SDS011;4909;42.680;26.324;2023-12-20T04:05:23;56.73;;;47.23;;
9739;SDS011;4909;42.680;26.324;2023-12-20T04:07:50;55.13;;;45.50;;
9739;SDS011;4909;42.680;26.324;2023-12-20T04:10:17;58.63;;;46.20;;
9739;SDS011;4909;42.680;26.324;2023-12-20T04:12:44;52.97;;;43.50;;
9739;SDS011;4909;42.680;26.324;2023-12-20T04:15:11;55.43;;;44.57;;
9739;SDS011;4909;42.680;26.324;2023-12-20T04:17:38;54.07;;;44.00;;
9739;SDS011;4909;42.680;26.324;2023-12-20T04:20:05;59.80;;;46.80;;
9739;SDS011;4909;42.680;26.324;2023-12-20T04:22:34;53.50;;;43.23;;
9739;SDS011;4909;42.680;26.324;2023-12-20T04:25:01;54.67;;;44.80;;
9739;SDS011;4909;42.680;26.324;2023-12-20T04:27:28;57.10;;;46.23;;
9739;SDS011;4909;42.680;26.324;2023-12-20T04:29:55;54.87;;;44.63;;
9739;SDS011;4909;42.680;26.324;2023-12-20T04:32:22;58.20;;;45.97;;
9739;SDS011;4909;42.680;26.324;2023-12-20T04:34:49;60.87;;;47.53;;
9739;SDS011;4909;42.680;26.324;2023-12-20T04:37:16;57.00;;;45.50;;
9739;SDS011;4909;42.680;26.324;2023-12-20T04:39:45;59.20;;;46.13;;
9739;SDS011;4909;42.680;26.324;2023-12-20T04:42:12;55.47;;;44.37;;
9739;SDS011;4909;42.680;26.324;2023-12-20T04:44:39;63.77;;;49.83;;
9739;SDS011;4909;42.680;26.324;2023-12-20T04:47:06;58.70;;;46.90;;
9739;SDS011;4909;42.680;26.324;2023-12-20T04:49:33;59.77;;;46.07;;
9739;SDS011;4909;42.680;26.324;2023-12-20T04:52:00;57.57;;;47.20;;
9739;SDS011;4909;42.680;26.324;2023-12-20T04:54:27;57.60;;;46.03;;
9739;SDS011;4909;42.680;26.324;2023-12-20T04:56:55;58.80;;;45.47;;
9739;SDS011;4909;42.680;26.324;2023-12-20T04:59:22;57.80;;;44.57;;
9739;SDS011;4909;42.680;26.324;2023-12-20T05:01:49;58.03;;;44.83;;
9739;SDS011;4909;42.680;26.324;2023-12-20T05:04:17;55.57;;;45.47;;
9739;SDS011;4909;42.680;26.324;2023-12-20T05:06:43;56.07;;;44.57;;
9739;SDS011;4909;42.680;26.324;2023-12-20T05:09:10;56.87;;;44.07;;
9739;SDS011;4909;42.680;26.324;2023-12-20T05:11:37;54.87;;;43.27;;
9739;SDS011;4909;42.680;26.324;2023-12-20T05:14:06;58.70;;;46.10;;
9739;SDS011;4909;42.680;26.324;2023-12-20T05:16:33;58.27;;;46.17;;
9739;SDS011;4909;42.680;26.324;2023-12-20T05:19:00;59.40;;;45.37;;
9739;SDS011;4909;42.680;26.324;2023-12-20T05:21:31;57.70;;;45.47;;
9739;SDS011;4909;42.680;26.324;2023-12-20T05:23:58;55.63;;;44.93;;
9739;SDS011;4909;42.680;26.324;2023-12-20T05:26:26;55.37;;;44.60;;
9739;SDS011;4909;42.680;26.324;2023-12-20T05:28:54;62.10;;;46.33;;
9739;SDS011;4909;42.680;26.324;2023-12-20T05:31:23;60.87;;;46.30;;
9739;SDS011;4909;42.680;26.324;2023-12-20T05:33:50;58.30;;;45.60;;
9739;SDS011;4909;42.680;26.324;2023-12-20T05:36:17;59.67;;;44.90;;
9739;SDS011;4909;42.680;26.324;2023-12-20T05:38:45;60.97;;;47.73;;
9739;SDS011;4909;42.680;26.324;2023-12-20T05:41:11;61.50;;;46.97;;
9739;SDS011;4909;42.680;26.324;2023-12-20T05:43:39;58.37;;;45.67;;
9739;SDS011;4909;42.680;26.324;2023-12-20T05:46:06;58.40;;;45.60;;
9739;SDS011;4909;42.680;26.324;2023-12-20T05:48:34;60.90;;;46.63;;
9739;SDS011;4909;42.680;26.324;2023-12-20T05:51:01;65.73;;;49.03;;
9739;SDS011;4909;42.680;26.324;2023-12-20T05:53:28;62.87;;;47.00;;
9739;SDS011;4909;42.680;26.324;2023-12-20T05:55:55;61.53;;;49.50;;
9739;SDS011;4909;42.680;26.324;2023-12-20T05:58:24;62.10;;;48.73;;
9739;SDS011;4909;42.680;26.324;2023-12-20T06:00:51;65.10;;;48.13;;
9739;SDS011;4909;42.680;26.324;2023-12-20T06:03:18;64.40;;;48.30;;
9739;SDS011;4909;42.680;26.324;2023-12-20T06:05:46;60.67;;;47.80;;
9739;SDS011;4909;42.680;26.324;2023-12-20T06:08:13;67.17;;;49.77;;
9739;SDS011;4909;42.680;26.324;2023-12-20T06:10:40;64.63;;;49.67;;
9739;SDS011;4909;42.680;26.324;2023-12-20T06:13:07;63.60;;;47.83;;
9739;SDS011;4909;42.680;26.324;2023-12-20T06:15:34;72.70;;;51.07;;
9739;SDS011;4909;42.680;26.324;2023-12-20T06:18:01;70.43;;;50.33;;
9739;SDS011;4909;42.680;26.324;2023-12-20T06:20:29;66.53;;;50.40;;
9739;SDS011;4909;42.680;26.324;2023-12-20T06:22:57;67.87;;;50.17;;
9739;SDS011;4909;42.680;26.324;2023-12-20T06:25:25;69.27;;;50.17;;
9739;SDS011;4909;42.680;26.324;2023-12-20T06:27:52;64.33;;;49.43;;
9739;SDS011;4909;42.680;26.324;2023-12-20T06:30:19;70.77;;;51.70;;
9739;SDS011;4909;42.680;26.324;2023-12-20T06:32:46;61.73;;;48.67;;
9739;SDS011;4909;42.680;26.324;2023-12-20T06:35:13;67.93;;;50.07;;
9739;SDS011;4909;42.680;26.324;2023-12-20T06:37:40;72.27;;;52.50;;
9739;SDS011;4909;42.680;26.324;2023-12-20T06:40:10;73.07;;;51.77;;
9739;SDS011;4909;42.680;26.324;2023-12-20T06:42:37;80.60;;;55.60;;
9739;SDS011;4909;42.680;26.324;2023-12-20T06:45:05;88.60;;;58.00;;
9739;SDS011;4909;42.680;26.324;2023-12-20T06:47:32;98.67;;;63.73;;
9739;SDS011;4909;42.680;26.324;2023-12-20T06:49:59;109.03;;;70.63;;
9739;SDS011;4909;42.680;26.324;2023-12-20T06:52:27;126.40;;;78.70;;
9739;SDS011;4909;42.680;26.324;2023-12-20T06:54:54;133.43;;;82.47;;
9739;SDS011;4909;42.680;26.324;2023-12-20T06:57:22;150.30;;;93.10;;
9739;SDS011;4909;42.680;26.324;2023-12-20T06:59:51;150.43;;;97.63;;
9739;SDS011;4909;42.680;26.324;2023-12-20T07:02:18;155.57;;;97.80;;
9739;SDS011;4909;42.680;26.324;2023-12-20T07:04:46;164.43;;;106.17;;
9739;SDS011;4909;42.680;26.324;2023-12-20T07:07:13;176.77;;;110.90;;
9739;SDS011;4909;42.680;26.324;2023-12-20T07:09:40;174.17;;;108.43;;
9739;SDS011;4909;42.680;26.324;2023-12-20T07:12:08;184.57;;;121.50;;
9739;SDS011;4909;42.680;26.324;2023-12-20T07:14:36;175.00;;;114.87;;
9739;SDS011;4909;42.680;26.324;2023-12-20T07:17:03;171.20;;;113.90;;
9739;SDS011;4909;42.680;26.324;2023-12-20T07:19:32;162.63;;;113.00;;
9739;SDS011;4909;42.680;26.324;2023-12-20T07:21:59;195.27;;;127.60;;
9739;SDS011;4909;42.680;26.324;2023-12-20T07:24:26;204.60;;;129.63;;
9739;SDS011;4909;42.680;26.324;2023-12-20T07:26:53;225.00;;;141.23;;
9739;SDS011;4909;42.680;26.324;2023-12-20T07:29:20;222.80;;;137.80;;
9739;SDS011;4909;42.680;26.324;2023-12-20T07:31:49;236.77;;;160.67;;
9739;SDS011;4909;42.680;26.324;2023-12-20T07:34:17;241.03;;;160.50;;
9739;SDS011;4909;42.680;26.324;2023-12-20T07:36:44;255.17;;;170.30;;
9739;SDS011;4909;42.680;26.324;2023-12-20T07:39:12;250.50;;;173.67;;
9739;SDS011;4909;42.680;26.324;2023-12-20T07:41:39;252.13;;;176.90;;
9739;SDS011;4909;42.680;26.324;2023-12-20T07:44:06;259.03;;;179.23;;
9739;SDS011;4909;42.680;26.324;2023-12-20T07:46:33;268.30;;;187.80;;
9739;SDS011;4909;42.680;26.324;2023-12-20T07:49:02;280.93;;;198.70;;
9739;SDS011;4909;42.680;26.324;2023-12-20T07:51:30;295.17;;;207.77;;
9739;SDS011;4909;42.680;26.324;2023-12-20T07:53:57;309.10;;;215.73;;
9739;SDS011;4909;42.680;26.324;2023-12-20T07:56:24;326.57;;;236.57;;
9739;SDS011;4909;42.680;26.324;2023-12-20T07:58:51;332.53;;;257.60;;
9739;SDS011;4909;42.680;26.324;2023-12-20T08:01:18;339.53;;;253.97;;
9739;SDS011;4909;42.680;26.324;2023-12-20T08:03:45;340.63;;;277.63;;
9739;SDS011;4909;42.680;26.324;2023-12-20T08:06:14;337.90;;;261.67;;
9739;SDS011;4909;42.680;26.324;2023-12-20T08:08:42;333.00;;;255.07;;
9739;SDS011;4909;42.680;26.324;2023-12-20T08:11:09;334.77;;;255.90;;
9739;SDS011;4909;42.680;26.324;2023-12-20T08:13:36;331.43;;;262.70;;
9739;SDS011;4909;42.680;26.324;2023-12-20T08:16:03;341.50;;;280.77;;
9739;SDS011;4909;42.680;26.324;2023-12-20T08:18:31;331.70;;;260.07;;
9739;SDS011;4909;42.680;26.324;2023-12-20T08:20:59;333.97;;;264.70;;
9739;SDS011;4909;42.680;26.324;2023-12-20T08:23:27;335.67;;;271.53;;
9739;SDS011;4909;42.680;26.324;2023-12-20T08:25:54;334.73;;;264.43;;
9739;SDS011;4909;42.680;26.324;2023-12-20T08:28:21;332.00;;;261.73;;
9739;SDS011;4909;42.680;26.324;2023-12-20T08:30:48;332.73;;;259.80;;
9739;SDS011;4909;42.680;26.324;2023-12-20T08:33:18;320.67;;;247.50;;
9739;SDS011;4909;42.680;26.324;2023-12-20T08:35:45;312.47;;;238.37;;
9739;SDS011;4909;42.680;26.324;2023-12-20T08:38:12;306.30;;;233.57;;
9739;SDS011;4909;42.680;26.324;2023-12-20T08:40:41;299.80;;;205.50;;
9739;SDS011;4909;42.680;26.324;2023-12-20T08:43:08;297.37;;;208.37;;
9739;SDS011;4909;42.680;26.324;2023-12-20T08:45:35;307.47;;;216.70;;
9739;SDS011;4909;42.680;26.324;2023-12-20T08:48:02;305.37;;;211.87;;
9739;SDS011;4909;42.680;26.324;2023-12-20T08:50:29;302.47;;;219.40;;
9739;SDS011;4909;42.680;26.324;2023-12-20T08:52:56;306.70;;;228.80;;
9739;SDS011;4909;42.680;26.324;2023-12-20T08:55:23;304.20;;;221.57;;
9739;SDS011;4909;42.680;26.324;2023-12-20T08:57:53;297.10;;;213.77;;
9739;SDS011;4909;42.680;26.324;2023-12-20T09:00:20;296.40;;;211.60;;
9739;SDS011;4909;42.680;26.324;2023-12-20T09:02:49;289.40;;;203.67;;
9739;SDS011;4909;42.680;26.324;2023-12-20T09:05:16;295.73;;;224.90;;
9739;SDS011;4909;42.680;26.324;2023-12-20T09:07:43;285.97;;;203.27;;
9739;SDS011;4909;42.680;26.324;2023-12-20T09:10:10;282.50;;;198.47;;
9739;SDS011;4909;42.680;26.324;2023-12-20T09:12:38;283.87;;;198.33;;
9739;SDS011;4909;42.680;26.324;2023-12-20T09:15:07;290.30;;;196.23;;
9739;SDS011;4909;42.680;26.324;2023-12-20T09:17:34;285.27;;;188.63;;
9739;SDS011;4909;42.680;26.324;2023-12-20T09:20:01;293.53;;;203.20;;
9739;SDS011;4909;42.680;26.324;2023-12-20T09:22:31;287.17;;;189.63;;
9739;SDS011;4909;42.680;26.324;2023-12-20T09:24:58;294.77;;;205.00;;
9739;SDS011;4909;42.680;26.324;2023-12-20T09:27:25;284.73;;;196.80;;
9739;SDS011;4909;42.680;26.324;2023-12-20T09:29:52;281.53;;;191.00;;
9739;SDS011;4909;42.680;26.324;2023-12-20T09:32:21;283.77;;;198.70;;
9739;SDS011;4909;42.680;26.324;2023-12-20T09:34:48;283.03;;;196.53;;
9739;SDS011;4909;42.680;26.324;2023-12-20T09:37:15;288.17;;;192.03;;
9739;SDS011;4909;42.680;26.324;2023-12-20T09:39:42;288.13;;;195.07;;
9739;SDS011;4909;42.680;26.324;2023-12-20T09:42:09;284.30;;;188.00;;
9739;SDS011;4909;42.680;26.324;2023-12-20T09:44:38;283.50;;;190.37;;
9739;SDS011;4909;42.680;26.324;2023-12-20T09:47:07;281.60;;;193.60;;
9739;SDS011;4909;42.680;26.324;2023-12-20T09:49:36;273.20;;;183.03;;
9739;SDS011;4909;42.680;26.324;2023-12-20T09:52:04;270.43;;;182.83;;
9739;SDS011;4909;42.680;26.324;2023-12-20T09:54:34;270.10;;;175.90;;
9739;SDS011;4909;42.680;26.324;2023-12-20T09:57:01;270.40;;;175.37;;
9739;SDS011;4909;42.680;26.324;2023-12-20T09:59:28;264.73;;;174.30;;
9739;SDS011;4909;42.680;26.324;2023-12-20T10:01:55;264.47;;;167.30;;
9739;SDS011;4909;42.680;26.324;2023-12-20T10:04:23;265.00;;;174.50;;
9739;SDS011;4909;42.680;26.324;2023-12-20T10:06:52;250.13;;;167.17;;
9739;SDS011;4909;42.680;26.324;2023-12-20T10:09:19;250.33;;;163.27;;
9739;SDS011;4909;42.680;26.324;2023-12-20T10:11:46;245.07;;;156.30;;
9739;SDS011;4909;42.680;26.324;2023-12-20T10:14:13;244.43;;;152.43;;
9739;SDS011;4909;42.680;26.324;2023-12-20T10:16:40;243.87;;;152.67;;
9739;SDS011;4909;42.680;26.324;2023-12-20T10:19:07;252.60;;;157.93;;
9739;SDS011;4909;42.680;26.324;2023-12-20T10:21:34;251.60;;;163.37;;
9739;SDS011;4909;42.680;26.324;2023-12-20T10:24:03;244.53;;;152.27;;
9739;SDS011;4909;42.680;26.324;2023-12-20T10:26:30;246.77;;;142.47;;
9739;SDS011;4909;42.680;26.324;2023-12-20T10:28:59;247.67;;;146.97;;
9739;SDS011;4909;42.680;26.324;2023-12-20T10:31:28;245.97;;;151.90;;
9739;SDS011;4909;42.680;26.324;2023-12-20T10:34:13;255.30;;;152.10;;
9739;SDS011;4909;42.680;26.324;2023-12-20T10:36:41;254.97;;;149.20;;
9739;SDS011;4909;42.680;26.324;2023-12-20T10:39:09;257.47;;;158.33;;
9739;SDS011;4909;42.680;26.324;2023-12-20T10:41:41;251.37;;;149.77;;
9739;SDS011;4909;42.680;26.324;2023-12-20T10:44:09;257.70;;;154.77;;
9739;SDS011;4909;42.680;26.324;2023-12-20T10:46:37;257.80;;;158.60;;
9739;SDS011;4909;42.680;26.324;2023-12-20T10:49:12;252.47;;;146.77;;
9739;SDS011;4909;42.680;26.324;2023-12-20T10:51:41;259.40;;;155.23;;
9739;SDS011;4909;42.680;26.324;2023-12-20T10:54:12;248.40;;;145.23;;
9739;SDS011;4909;42.680;26.324;2023-12-20T10:56:39;254.93;;;148.13;;
9739;SDS011;4909;42.680;26.324;2023-12-20T10:59:06;260.57;;;147.70;;
9739;SDS011;4909;42.680;26.324;2023-12-20T11:01:37;263.33;;;153.17;;
9739;SDS011;4909;42.680;26.324;2023-12-20T11:04:08;259.40;;;147.77;;
9739;SDS011;4909;42.680;26.324;2023-12-20T11:06:43;262.60;;;151.83;;
9739;SDS011;4909;42.680;26.324;2023-12-20T11:09:19;264.27;;;151.07;;
9739;SDS011;4909;42.680;26.324;2023-12-20T11:11:56;258.30;;;144.50;;
9739;SDS011;4909;42.680;26.324;2023-12-20T11:14:31;254.93;;;142.47;;
9739;SDS011;4909;42.680;26.324;2023-12-20T11:17:05;261.77;;;149.50;;
9739;SDS011;4909;42.680;26.324;2023-12-20T11:19:35;264.50;;;144.00;;
9739;SDS011;4909;42.680;26.324;2023-12-20T11:22:03;261.37;;;135.17;;
9739;SDS011;4909;42.680;26.324;2023-12-20T11:24:32;257.27;;;149.23;;
9739;SDS011;4909;42.680;26.324;2023-12-20T11:27:03;259.70;;;152.90;;
9739;SDS011;4909;42.680;26.324;2023-12-20T11:29:33;254.27;;;146.07;;
9739;SDS011;4909;42.680;26.324;2023-12-20T11:32:01;252.77;;;138.20;;
9739;SDS011;4909;42.680;26.324;2023-12-20T11:34:28;253.23;;;140.63;;
9739;SDS011;4909;42.680;26.324;2023-12-20T11:36:59;255.27;;;141.60;;
9739;SDS011;4909;42.680;26.324;2023-12-20T11:39:26;253.57;;;135.80;;
9739;SDS011;4909;42.680;26.324;2023-12-20T11:41:56;243.63;;;132.47;;
9739;SDS011;4909;42.680;26.324;2023-12-20T11:44:25;242.47;;;131.73;;
9739;SDS011;4909;42.680;26.324;2023-12-20T11:46:52;234.17;;;129.03;;
9739;SDS011;4909;42.680;26.324;2023-12-20T11:49:23;228.03;;;123.27;;
9739;SDS011;4909;42.680;26.324;2023-12-20T11:51:50;238.67;;;123.33;;
9739;SDS011;4909;42.680;26.324;2023-12-20T11:54:17;231.33;;;124.70;;
9739;SDS011;4909;42.680;26.324;2023-12-20T11:56:45;235.83;;;128.93;;
9739;SDS011;4909;42.680;26.324;2023-12-20T11:59:14;234.87;;;128.40;;
9739;SDS011;4909;42.680;26.324;2023-12-20T12:01:47;229.03;;;127.13;;
9739;SDS011;4909;42.680;26.324;2023-12-20T12:04:15;229.43;;;126.30;;
9739;SDS011;4909;42.680;26.324;2023-12-20T12:06:43;228.67;;;123.60;;
9739;SDS011;4909;42.680;26.324;2023-12-20T12:09:10;231.97;;;124.83;;
9739;SDS011;4909;42.680;26.324;2023-12-20T12:11:37;227.03;;;121.80;;
9739;SDS011;4909;42.680;26.324;2023-12-20T12:14:04;231.50;;;126.93;;
9739;SDS011;4909;42.680;26.324;2023-12-20T12:16:34;231.87;;;127.80;;
9739;SDS011;4909;42.680;26.324;2023-12-20T12:19:01;232.07;;;125.67;;
9739;SDS011;4909;42.680;26.324;2023-12-20T12:21:29;230.40;;;126.67;;
9739;SDS011;4909;42.680;26.324;2023-12-20T12:24:05;231.03;;;131.27;;
9739;SDS011;4909;42.680;26.324;2023-12-20T12:26:33;232.17;;;129.43;;
9739;SDS011;4909;42.680;26.324;2023-12-20T12:29:00;232.70;;;126.93;;
9739;SDS011;4909;42.680;26.324;2023-12-20T12:31:27;236.27;;;135.33;;
9739;SDS011;4909;42.680;26.324;2023-12-20T12:33:57;238.87;;;133.40;;
9739;SDS011;4909;42.680;26.324;2023-12-20T12:36:24;237.53;;;128.17;;
9739;SDS011;4909;42.680;26.324;2023-12-20T12:38:51;239.93;;;133.73;;
9739;SDS011;4909;42.680;26.324;2023-12-20T12:41:18;237.00;;;129.07;;
9739;SDS011;4909;42.680;26.324;2023-12-20T12:43:45;238.80;;;130.37;;
9739;SDS011;4909;42.680;26.324;2023-12-20T12:46:12;234.70;;;127.37;;
9739;SDS011;4909;42.680;26.324;2023-12-20T12:48:39;238.93;;;133.43;;
9739;SDS011;4909;42.680;26.324;2023-12-20T12:51:07;234.23;;;127.30;;
9739;SDS011;4909;42.680;26.324;2023-12-20T12:53:38;233.60;;;127.50;;
9739;SDS011;4909;42.680;26.324;2023-12-20T12:56:05;235.47;;;131.37;;
9739;SDS011;4909;42.680;26.324;2023-12-20T12:58:32;235.90;;;128.23;;
9739;SDS011;4909;42.680;26.324;2023-12-20T13:01:00;235.63;;;129.73;;
9739;SDS011;4909;42.680;26.324;2023-12-20T13:03:28;234.17;;;131.53;;
9739;SDS011;4909;42.680;26.324;2023-12-20T13:05:55;241.73;;;133.33;;
9739;SDS011;4909;42.680;26.324;2023-12-20T13:08:24;239.27;;;133.53;;
9739;SDS011;4909;42.680;26.324;2023-12-20T13:10:51;243.37;;;129.23;;
9739;SDS011;4909;42.680;26.324;2023-12-20T13:13:18;235.90;;;129.40;;
9739;SDS011;4909;42.680;26.324;2023-12-20T13:15:45;239.23;;;133.60;;
9739;SDS011;4909;42.680;26.324;2023-12-20T13:18:16;243.70;;;139.27;;
9739;SDS011;4909;42.680;26.324;2023-12-20T13:20:43;236.40;;;128.77;;
9739;SDS011;4909;42.680;26.324;2023-12-20T13:23:10;238.60;;;132.57;;
9739;SDS011;4909;42.680;26.324;2023-12-20T13:25:39;229.40;;;125.97;;
9739;SDS011;4909;42.680;26.324;2023-12-20T13:28:06;230.27;;;126.63;;
9739;SDS011;4909;42.680;26.324;2023-12-20T13:30:33;231.40;;;131.83;;
9739;SDS011;4909;42.680;26.324;2023-12-20T13:33:01;236.20;;;133.57;;
9739;SDS011;4909;42.680;26.324;2023-12-20T13:35:28;228.43;;;126.00;;
9739;SDS011;4909;42.680;26.324;2023-12-20T13:37:54;218.30;;;121.10;;
9739;SDS011;4909;42.680;26.324;2023-12-20T13:40:22;228.23;;;127.33;;
9739;SDS011;4909;42.680;26.324;2023-12-20T13:42:51;220.83;;;122.27;;
9739;SDS011;4909;42.680;26.324;2023-12-20T13:45:18;214.77;;;120.97;;
9739;SDS011;4909;42.680;26.324;2023-12-20T13:47:45;214.93;;;120.37;;
9739;SDS011;4909;42.680;26.324;2023-12-20T13:50:12;220.03;;;123.67;;
9739;SDS011;4909;42.680;26.324;2023-12-20T13:52:39;208.17;;;120.53;;
9739;SDS011;4909;42.680;26.324;2023-12-20T13:55:06;212.13;;;118.77;;
9739;SDS011;4909;42.680;26.324;2023-12-20T13:57:33;203.87;;;114.80;;
9739;SDS011;4909;42.680;26.324;2023-12-20T14:00:04;205.30;;;117.30;;
9739;SDS011;4909;42.680;26.324;2023-12-20T14:02:38;201.07;;;112.97;;
9739;SDS011;4909;42.680;26.324;2023-12-20T14:05:05;199.50;;;120.83;;
9739;SDS011;4909;42.680;26.324;2023-12-20T14:07:32;197.97;;;115.87;;
9739;SDS011;4909;42.680;26.324;2023-12-20T14:09:59;195.40;;;112.90;;
9739;SDS011;4909;42.680;26.324;2023-12-20T14:12:26;194.23;;;114.77;;
9739;SDS011;4909;42.680;26.324;2023-12-20T14:14:53;196.80;;;116.47;;
9739;SDS011;4909;42.680;26.324;2023-12-20T14:17:22;194.53;;;121.53;;
9739;SDS011;4909;42.680;26.324;2023-12-20T14:19:49;184.30;;;104.27;;
9739;SDS011;4909;42.680;26.324;2023-12-20T14:22:16;186.93;;;108.30;;
9739;SDS011;4909;42.680;26.324;2023-12-20T14:24:44;192.93;;;107.23;;